Time;durP1;ratioP1;P1;durP2;ratioP2;P2;SDS_P1;SDS_P2;PMS_P1;PMS_P2;Temp;Humidity;BMP_temperature;BMP_pressure;BME280_temperature;BME280_humidity;BME280_pressure;Samples;Min_cycle;Max_cycle;Signal;HPM_P1;HPM_P2
2023/06/23 00:01:47;;;;;;;69.47;42.60;;;16.50;99.90;;;;;;5074088;28;20176;-64
2023/06/23 00:04:12;;;;;;;64.23;41.23;;;16.50;99.90;;;;;;5074430;28;20256;-63
2023/06/23 00:06:38;;;;;;;63.17;42.00;;;16.40;99.90;;;;;;5074377;28;20196;-63
2023/06/23 00:09:13;;;;;;;61.00;41.70;;;16.40;99.90;;;;;;5074252;28;20181;-64
2023/06/23 00:11:42;;;;;;;61.47;39.30;;;16.40;99.90;;;;;;5074185;28;20203;-64
2023/06/23 00:14:08;;;;;;;54.77;38.43;;;16.40;99.90;;;;;;5074304;28;20161;-64
2023/06/23 00:16:34;;;;;;;55.00;38.47;;;16.30;99.90;;;;;;5073915;28;20218;-64
2023/06/23 00:19:00;;;;;;;58.00;39.40;;;16.30;99.90;;;;;;5074129;28;20202;-64
2023/06/23 00:21:26;;;;;;;53.70;38.17;;;16.30;99.90;;;;;;5074251;28;20177;-64
2023/06/23 00:23:54;;;;;;;58.00;37.37;;;16.30;99.90;;;;;;5073853;28;20173;-64
2023/06/23 00:26:20;;;;;;;51.60;35.73;;;16.30;99.90;;;;;;5073961;28;20203;-64
2023/06/23 00:28:46;;;;;;;52.70;36.47;;;16.20;99.90;;;;;;5073952;28;20181;-64
2023/06/23 00:31:11;;;;;;;56.63;38.47;;;16.20;99.90;;;;;;5073538;28;20567;-63
2023/06/23 00:33:37;;;;;;;59.13;38.20;;;16.10;99.90;;;;;;5073874;28;20212;-64
2023/06/23 00:36:04;;;;;;;58.70;38.23;;;16.20;99.90;;;;;;5073609;28;20181;-63
2023/06/23 00:38:29;;;;;;;53.90;37.70;;;16.20;99.90;;;;;;5073484;28;20334;-64
2023/06/23 00:40:55;;;;;;;55.67;38.37;;;16.20;99.90;;;;;;5073770;28;20643;-63
2023/06/23 00:43:21;;;;;;;57.27;38.27;;;16.10;99.90;;;;;;5073338;28;20176;-63
2023/06/23 00:45:47;;;;;;;56.43;36.60;;;16.10;99.90;;;;;;5073588;28;20201;-62
2023/06/23 00:48:14;;;;;;;57.30;36.80;;;16.10;99.90;;;;;;5073551;28;20626;-63
2023/06/23 00:50:41;;;;;;;54.30;36.57;;;16.10;99.90;;;;;;5073363;28;20208;-64
2023/06/23 00:53:07;;;;;;;57.87;35.00;;;16.10;99.90;;;;;;5073415;28;20251;-63
2023/06/23 00:55:37;;;;;;;53.20;35.87;;;16.10;99.90;;;;;;5073435;28;20168;-64
2023/06/23 00:58:03;;;;;;;61.37;36.97;;;16.10;99.90;;;;;;5073294;28;20163;-64
2023/06/23 01:00:29;;;;;;;54.77;35.87;;;16.00;99.90;;;;;;5073413;28;20263;-63
2023/06/23 01:02:59;;;;;;;49.23;35.70;;;16.10;99.90;;;;;;5073062;28;20165;-62
2023/06/23 01:05:43;;;;;;;52.83;35.03;;;16.10;99.90;;;;;;5073197;28;20207;-64
2023/06/23 01:08:19;;;;;;;51.67;34.30;;;16.10;99.90;;;;;;5073321;28;20247;-64
2023/06/23 01:10:59;;;;;;;49.30;34.37;;;16.10;99.90;;;;;;5073292;28;20196;-64
2023/06/23 01:13:30;;;;;;;53.67;34.73;;;16.00;99.90;;;;;;5073019;28;20215;-64
2023/06/23 01:16:07;;;;;;;51.13;35.87;;;16.00;99.90;;;;;;5073008;28;20255;-64
2023/06/23 01:19:11;;;;;;;53.50;34.50;;;16.00;99.90;;;;;;5073351;28;20255;-62
2023/06/23 01:21:59;;;;;;;56.20;34.47;;;16.00;99.90;;;;;;4990807;28;20184;-64
2023/06/23 01:24:47;;;;;;;53.07;35.83;;;16.00;99.90;;;;;;5073074;28;20191;-63
2023/06/23 01:27:40;;;;;;;47.67;34.57;;;16.00;99.90;;;;;;5072722;28;20329;-63
2023/06/23 01:30:10;;;;;;;54.57;35.90;;;16.00;99.90;;;;;;5072910;28;20761;-62
2023/06/23 01:32:43;;;;;;;52.07;34.90;;;16.00;99.90;;;;;;5055014;28;20519;-63
2023/06/23 01:35:17;;;;;;;51.40;35.80;;;15.90;99.90;;;;;;5073211;28;20160;-62
2023/06/23 01:37:46;;;;;;;55.00;35.83;;;15.80;99.90;;;;;;5072790;28;20299;-62
2023/06/23 01:40:15;;;;;;;51.33;34.33;;;15.90;99.90;;;;;;5072894;28;20213;-63
2023/06/23 01:42:49;;;;;;;54.37;34.50;;;15.90;99.90;;;;;;5072662;28;20187;-64
2023/06/23 01:45:16;;;;;;;55.17;36.83;;;15.80;99.90;;;;;;5073279;28;20176;-64
2023/06/23 01:47:44;;;;;;;49.03;33.97;;;15.80;99.90;;;;;;5072923;28;20194;-64
2023/06/23 01:50:16;;;;;;;54.03;37.20;;;15.80;99.90;;;;;;5072723;28;20679;-64
2023/06/23 01:52:44;;;;;;;55.17;36.17;;;15.90;99.90;;;;;;5072905;28;20215;-63
2023/06/23 01:55:10;;;;;;;54.93;37.53;;;15.90;99.90;;;;;;5072751;28;20639;-63
2023/06/23 01:57:38;;;;;;;55.87;36.73;;;15.90;99.90;;;;;;5072345;28;20625;-65
2023/06/23 02:00:11;;;;;;;58.60;36.77;;;15.90;99.90;;;;;;5072796;28;20165;-63
2023/06/23 02:02:38;;;;;;;56.40;36.13;;;15.90;99.90;;;;;;5072844;28;20184;-63
2023/06/23 02:05:05;;;;;;;53.33;36.07;;;15.80;99.90;;;;;;5072938;28;20168;-64
2023/06/23 02:07:32;;;;;;;53.37;35.50;;;15.80;99.90;;;;;;5072635;28;20222;-63
2023/06/23 02:10:01;;;;;;;48.13;35.63;;;15.80;99.90;;;;;;5072405;28;20275;-63
2023/06/23 02:12:27;;;;;;;54.50;36.97;;;15.80;99.90;;;;;;5072295;28;20169;-64
2023/06/23 02:14:52;;;;;;;51.13;36.83;;;15.80;99.90;;;;;;5072948;28;20252;-63
2023/06/23 02:17:21;;;;;;;48.43;36.20;;;15.80;99.90;;;;;;5076497;28;20211;-63
2023/06/23 02:19:48;;;;;;;57.37;36.00;;;15.80;99.90;;;;;;5076542;28;20211;-63
2023/06/23 02:22:17;;;;;;;52.20;36.27;;;15.80;99.90;;;;;;5076378;28;20180;-64
2023/06/23 02:24:45;;;;;;;51.63;35.40;;;15.80;99.90;;;;;;5076181;28;20245;-63
2023/06/23 02:27:12;;;;;;;51.27;36.07;;;15.80;99.90;;;;;;5075734;28;20192;-65
2023/06/23 02:29:40;;;;;;;53.70;35.87;;;15.80;99.90;;;;;;5076097;28;20628;-63
2023/06/23 02:32:07;;;;;;;58.20;36.13;;;15.90;99.90;;;;;;5076296;28;20177;-63
2023/06/23 02:34:35;;;;;;;57.30;38.07;;;15.80;99.90;;;;;;5076219;28;20245;-63
2023/06/23 02:37:08;;;;;;;53.27;38.07;;;15.80;99.90;;;;;;5075733;28;20232;-63
2023/06/23 02:39:41;;;;;;;52.13;36.87;;;15.80;99.90;;;;;;5075760;28;20173;-64
2023/06/23 02:42:12;;;;;;;55.23;38.37;;;15.70;99.90;;;;;;5075935;28;20172;-63
2023/06/23 02:44:48;;;;;;;56.83;39.70;;;15.80;99.90;;;;;;5076081;28;20604;-64
2023/06/23 02:47:18;;;;;;;55.90;40.10;;;15.80;99.90;;;;;;5075872;28;20672;-64
2023/06/23 02:49:46;;;;;;;60.33;39.17;;;15.70;99.90;;;;;;5075854;28;20203;-62
2023/06/23 02:52:14;;;;;;;56.77;39.30;;;15.80;99.90;;;;;;5075598;28;20581;-62
2023/06/23 02:54:45;;;;;;;56.27;38.03;;;15.70;99.90;;;;;;5075557;28;20714;-64
2023/06/23 02:57:14;;;;;;;57.37;39.07;;;15.70;99.90;;;;;;5075832;28;20247;-63
2023/06/23 02:59:44;;;;;;;58.77;38.77;;;15.70;99.90;;;;;;5075763;28;20357;-62
2023/06/23 03:02:13;;;;;;;58.43;39.53;;;15.70;99.90;;;;;;5075572;28;20157;-63
2023/06/23 03:04:41;;;;;;;63.40;39.97;;;15.70;99.90;;;;;;5075788;28;20187;-64
2023/06/23 03:07:07;;;;;;;58.13;39.73;;;15.70;99.90;;;;;;5075389;28;20620;-63
2023/06/23 03:09:34;;;;;;;59.73;39.43;;;15.70;99.90;;;;;;5075287;28;20192;-63
2023/06/23 03:11:59;;;;;;;64.37;40.63;;;15.70;99.90;;;;;;5075356;28;20176;-63
2023/06/23 03:14:26;;;;;;;64.40;40.63;;;15.70;99.90;;;;;;5075368;28;20180;-64
2023/06/23 03:17:02;;;;;;;61.10;39.90;;;15.70;99.90;;;;;;5074971;28;20180;-65
2023/06/23 03:19:36;;;;;;;59.47;39.63;;;15.70;99.90;;;;;;5075343;28;20172;-63
2023/06/23 03:22:11;;;;;;;61.73;40.63;;;15.80;99.90;;;;;;5075345;28;20212;-64
2023/06/23 03:24:38;;;;;;;64.40;41.03;;;15.80;99.90;;;;;;5074866;28;20200;-64
2023/06/23 03:27:09;;;;;;;66.57;42.13;;;15.80;99.90;;;;;;5074609;28;20192;-63
2023/06/23 03:29:39;;;;;;;63.73;41.60;;;15.80;99.90;;;;;;5074852;28;20522;-63
2023/06/23 03:32:07;;;;;;;64.77;41.83;;;15.80;99.90;;;;;;5074943;28;20180;-63
2023/06/23 03:35:03;;;;;;;65.40;41.60;;;15.80;99.90;;;;;;5074815;28;20204;-63
2023/06/23 03:37:31;;;;;;;70.53;42.73;;;15.80;99.90;;;;;;5065935;28;20251;-64
2023/06/23 03:40:03;;;;;;;68.93;44.50;;;15.80;99.90;;;;;;5074755;28;20180;-63
2023/06/23 03:42:29;;;;;;;69.73;43.87;;;15.80;99.90;;;;;;5075056;28;20161;-64
2023/06/23 03:44:56;;;;;;;66.93;42.63;;;15.80;99.90;;;;;;5074527;28;20176;-63
2023/06/23 03:47:27;;;;;;;68.20;44.33;;;15.80;99.90;;;;;;5074537;28;20310;-63
2023/06/23 03:49:58;;;;;;;70.40;45.43;;;15.90;99.90;;;;;;5074327;28;20679;-63
2023/06/23 03:52:27;;;;;;;66.87;42.80;;;15.90;99.90;;;;;;5074209;28;20200;-62
2023/06/23 03:54:54;;;;;;;64.50;44.10;;;16.10;99.90;;;;;;5074290;28;20180;-63
2023/06/23 03:57:24;;;;;;;64.70;42.60;;;16.30;99.90;;;;;;5074342;28;20204;-64
2023/06/23 03:59:51;;;;;;;59.73;41.07;;;16.50;99.90;;;;;;5074382;28;20173;-63
2023/06/23 04:02:20;;;;;;;59.33;41.70;;;16.70;99.90;;;;;;5056066;28;20187;-63
2023/06/23 04:04:49;;;;;;;58.33;39.10;;;16.80;99.90;;;;;;5074024;28;20172;-64
2023/06/23 04:07:17;;;;;;;52.33;38.53;;;16.90;99.90;;;;;;5073687;28;20651;-64
2023/06/23 04:09:48;;;;;;;52.87;37.90;;;17.20;99.90;;;;;;5073814;28;20180;-64
2023/06/23 04:12:16;;;;;;;48.33;36.23;;;17.30;99.90;;;;;;5073932;28;20274;-64
2023/06/23 04:14:47;;;;;;;50.20;36.33;;;17.60;99.90;;;;;;5073808;28;20172;-64
2023/06/23 04:17:14;;;;;;;46.85;35.20;;;17.80;99.90;;;;;;5073611;28;20172;-64
2023/06/23 04:19:42;;;;;;;40.95;32.72;;;18.10;99.90;;;;;;5074054;28;20173;-63
2023/06/23 04:22:09;;;;;;;41.08;32.38;;;18.20;99.90;;;;;;5072958;28;20623;-64
2023/06/23 04:24:39;;;;;;;43.70;32.05;;;18.50;99.90;;;;;;5073894;28;20699;-65
2023/06/23 04:27:06;;;;;;;37.53;31.48;;;18.90;99.90;;;;;;5073718;28;20231;-63
2023/06/23 04:29:36;;;;;;;44.13;32.22;;;19.10;99.90;;;;;;5072924;28;20534;-63
2023/06/23 04:32:02;;;;;;;38.80;32.25;;;19.50;99.90;;;;;;5073422;28;20161;-63
2023/06/23 04:34:28;;;;;;;39.70;31.13;;;20.00;99.90;;;;;;5073712;28;20176;-63
2023/06/23 04:37:21;;;;;;;42.05;32.22;;;20.50;95.10;;;;;;5072626;28;20782;-64
2023/06/23 04:40:12;;;;;;;39.08;30.70;;;20.80;67.20;;;;;;5073115;28;20199;-63
2023/06/23 04:42:45;;;;;;;39.53;31.73;;;21.40;49.80;;;;;;5055436;28;20647;-65
2023/06/23 04:45:16;;;;;;;39.47;32.45;;;21.90;40.70;;;;;;5073083;28;20180;-64
2023/06/23 04:47:43;;;;;;;35.30;31.02;;;22.30;25.70;;;;;;5073481;28;20164;-64
2023/06/23 04:50:14;;;;;;;38.45;32.28;;;22.50;20.70;;;;;;5072466;28;20200;-64
2023/06/23 04:52:48;;;;;;;36.88;31.30;;;22.80;9.50;;;;;;5073067;28;20636;-64
2023/06/23 04:55:16;;;;;;;37.30;31.52;;;22.90;5.60;;;;;;5072584;28;20240;-64
2023/06/23 04:57:46;;;;;;;41.00;30.33;;;23.00;1.00;;;;;;5072961;28;20169;-64
2023/06/23 05:00:16;;;;;;;35.15;30.52;;;23.20;1.00;;;;;;5072723;28;20180;-64
2023/06/23 05:02:44;;;;;;;34.05;29.40;;;23.70;1.00;;;;;;5072987;28;20177;-65
2023/06/23 05:05:15;;;;;;;34.88;31.08;;;24.20;1.00;;;;;;5072454;28;20534;-66
2023/06/23 05:07:42;;;;;;;34.00;30.23;;;24.90;1.00;;;;;;5072736;28;20251;-65
2023/06/23 05:10:08;;;;;;;35.50;30.98;;;25.00;1.00;;;;;;5072642;28;20671;-65
2023/06/23 05:12:37;;;;;;;35.33;31.27;;;25.30;1.00;;;;;;5072126;28;20761;-64
2023/06/23 05:15:05;;;;;;;41.40;33.08;;;26.10;1.00;;;;;;5072500;28;20172;-64
2023/06/23 05:17:34;;;;;;;34.95;31.23;;;26.90;1.00;;;;;;5071901;28;20195;-65
2023/06/23 05:20:03;;;;;;;34.65;30.95;;;27.40;1.00;;;;;;5072003;28;20267;-65
2023/06/23 05:22:31;;;;;;;32.53;29.13;;;27.50;1.00;;;;;;5072626;28;20175;-64
2023/06/23 05:25:00;;;;;;;32.83;29.33;;;26.90;1.00;;;;;;5072402;28;20180;-65
2023/06/23 05:27:28;;;;;;;32.92;29.48;;;26.70;1.00;;;;;;5072102;28;20287;-64
2023/06/23 05:29:57;;;;;;;33.63;29.73;;;27.10;1.00;;;;;;5071999;28;20208;-67
2023/06/23 05:32:26;;;;;;;33.15;29.50;;;28.30;1.00;;;;;;5072081;28;20222;-67
2023/06/23 05:34:54;;;;;;;33.03;29.80;;;29.20;99.90;;;;;;5071798;28;20298;-68
2023/06/23 05:37:23;;;;;;;33.30;29.73;;;29.60;1.00;;;;;;5071895;28;20220;-67
2023/06/23 05:39:49;;;;;;;31.48;28.15;;;29.30;99.90;;;;;;5072287;28;20172;-69
2023/06/23 05:42:15;;;;;;;31.27;28.00;;;30.30;1.00;;;;;;5072066;28;20207;-67
2023/06/23 05:44:40;;;;;;;31.58;28.25;;;30.60;1.00;;;;;;5072427;28;20168;-67
2023/06/23 05:47:12;;;;;;;30.25;27.40;;;30.60;1.00;;;;;;5071660;28;20526;-68
2023/06/23 05:49:41;;;;;;;30.20;26.98;;;30.90;1.00;;;;;;5073291;28;20176;-67
2023/06/23 05:52:11;;;;;;;27.88;25.05;;;31.90;1.00;;;;;;5076051;28;20176;-68
2023/06/23 05:54:40;;;;;;;29.92;26.73;;;31.60;1.50;;;;;;5076241;28;20177;-65
2023/06/23 05:57:15;;;;;;;28.92;25.90;;;32.00;1.00;;;;;;5075453;28;20317;-64
2023/06/23 05:59:44;;;;;;;28.50;25.70;;;32.10;1.00;;;;;;5075583;28;20267;-66
2023/06/23 06:02:19;;;;;;;27.80;25.00;;;32.70;99.90;;;;;;5075562;28;20181;-66
2023/06/23 06:04:49;;;;;;;27.08;24.45;;;32.70;99.90;;;;;;5075089;28;20314;-67
2023/06/23 06:07:16;;;;;;;28.77;26.02;;;32.20;99.90;;;;;;5075449;28;20168;-65
2023/06/23 06:09:44;;;;;;;28.27;25.58;;;32.30;1.00;;;;;;5075568;28;20164;-66
2023/06/23 06:12:12;;;;;;;27.80;24.85;;;32.90;99.90;;;;;;5075718;28;20175;-66
2023/06/23 06:14:39;;;;;;;26.08;23.58;;;33.30;1.00;;;;;;5075584;28;20164;-65
2023/06/23 06:17:07;;;;;;;27.75;25.00;;;34.00;99.90;;;;;;5075286;28;20514;-68
2023/06/23 06:19:36;;;;;;;26.92;24.20;;;34.80;1.00;;;;;;5075528;28;20264;-67
2023/06/23 06:22:02;;;;;;;26.58;23.73;;;34.70;1.00;;;;;;5075559;28;20218;-67
2023/06/23 06:24:30;;;;;;;26.73;23.98;;;34.80;1.00;;;;;;5075370;28;20184;-66
2023/06/23 06:26:59;;;;;;;25.65;22.85;;;35.00;1.00;;;;;;5075092;28;20202;-68
2023/06/23 06:29:27;;;;;;;25.52;23.13;;;35.00;1.00;;;;;;5075874;28;20222;-68
2023/06/23 06:31:55;;;;;;;24.92;22.35;;;35.10;1.00;;;;;;5074643;28;20238;-67
2023/06/23 06:34:24;;;;;;;24.83;22.48;;;35.70;1.00;;;;;;5075640;28;20245;-66
2023/06/23 06:36:50;;;;;;;24.45;21.98;;;35.70;1.00;;;;;;5075017;28;20209;-67
2023/06/23 06:39:16;;;;;;;25.48;23.10;;;35.40;1.00;;;;;;5075283;28;20183;-67
2023/06/23 06:41:44;;;;;;;26.77;23.98;;;35.70;1.00;;;;;;5075495;28;20169;-67
2023/06/23 06:44:10;;;;;;;25.27;22.58;;;35.60;1.00;;;;;;5074731;28;20185;-68
2023/06/23 06:46:38;;;;;;;25.25;22.77;;;35.80;1.00;;;;;;5055753;28;20191;-69
2023/06/23 06:49:04;;;;;;;24.23;20.15;;;36.10;1.00;;;;;;5075194;28;20172;-68
2023/06/23 06:51:31;;;;;;;25.15;22.55;;;36.10;1.00;;;;;;5075176;28;20214;-67
2023/06/23 06:53:57;;;;;;;23.00;20.60;;;35.70;1.00;;;;;;5074259;28;20169;-68
2023/06/23 06:56:23;;;;;;;21.42;19.38;;;36.40;1.00;;;;;;5075405;28;20235;-67
2023/06/23 06:58:49;;;;;;;22.45;20.10;;;36.20;1.00;;;;;;5074906;28;20164;-67
2023/06/23 07:01:15;;;;;;;21.40;19.50;;;35.70;1.00;;;;;;5074128;28;20571;-68
2023/06/23 07:03:42;;;;;;;22.52;20.30;;;35.20;1.00;;;;;;5074373;28;20164;-67
2023/06/23 07:06:09;;;;;;;21.60;19.52;;;35.20;1.00;;;;;;5074975;28;20263;-68
2023/06/23 07:08:34;;;;;;;20.63;18.73;;;35.50;1.00;;;;;;5074956;28;20650;-68
2023/06/23 07:11:00;;;;;;;20.10;18.25;;;36.50;1.00;;;;;;5074580;28;20224;-68
2023/06/23 07:13:26;;;;;;;19.92;18.02;;;37.00;99.90;;;;;;5074610;28;20191;-69
2023/06/23 07:15:52;;;;;;;19.23;17.20;;;37.20;99.90;;;;;;5074166;28;20635;-68
2023/06/23 07:18:17;;;;;;;20.48;18.58;;;37.40;99.90;;;;;;5074236;28;20251;-68
2023/06/23 07:20:43;;;;;;;16.17;14.48;;;36.50;99.90;;;;;;5074759;28;20248;-67
2023/06/23 07:23:09;;;;;;;16.98;15.40;;;36.30;99.90;;;;;;5074457;28;20168;-68
2023/06/23 07:25:35;;;;;;;16.33;15.02;;;36.50;99.90;;;;;;5056671;28;20176;-69
2023/06/23 07:28:00;;;;;;;19.73;17.55;;;36.70;99.90;;;;;;5056702;28;20191;-70
2023/06/23 07:30:26;;;;;;;19.58;17.67;;;36.90;99.90;;;;;;5073948;28;20302;-71
2023/06/23 07:32:52;;;;;;;18.48;16.83;;;37.30;99.90;;;;;;5056420;28;20225;-68
2023/06/23 07:35:18;;;;;;;20.65;18.05;;;37.20;99.90;;;;;;5074359;28;20168;-68
2023/06/23 07:37:44;;;;;;;19.35;17.42;;;37.10;99.90;;;;;;5073553;28;20289;-68
2023/06/23 07:40:10;;;;;;;17.83;16.25;;;37.20;99.90;;;;;;5074436;28;20179;-69
2023/06/23 07:42:36;;;;;;;17.95;16.27;;;37.70;99.90;;;;;;5074111;28;20213;-69
2023/06/23 07:45:01;;;;;;;18.95;16.75;;;37.60;99.90;;;;;;5073981;28;20251;-69
2023/06/23 07:47:27;;;;;;;15.82;14.30;;;36.70;99.90;;;;;;5074220;28;20175;-69
2023/06/23 07:49:53;;;;;;;14.55;13.20;;;37.10;99.90;;;;;;5073927;28;20210;-69
2023/06/23 07:52:18;;;;;;;11.88;10.73;;;37.70;99.90;;;;;;5074106;28;20168;-68
2023/06/23 07:54:44;;;;;;;11.10;10.15;;;37.90;99.90;;;;;;5074017;28;20629;-69
2023/06/23 07:57:11;;;;;;;13.55;12.45;;;37.60;99.90;;;;;;5073907;28;20631;-68
2023/06/23 07:59:37;;;;;;;13.23;12.00;;;38.40;99.90;;;;;;5073288;28;20164;-68
2023/06/23 08:02:03;;;;;;;12.15;11.25;;;38.30;99.90;;;;;;5074023;28;20175;-69
2023/06/23 08:04:29;;;;;;;12.48;11.23;;;37.90;99.90;;;;;;5073691;28;20485;-69
2023/06/23 08:06:55;;;;;;;11.73;10.73;;;37.80;99.90;;;;;;5073520;28;20187;-68
2023/06/23 08:09:20;;;;;;;12.25;11.15;;;38.40;99.90;;;;;;5073969;28;20622;-68
2023/06/23 08:11:46;;;;;;;12.40;11.30;;;38.70;99.90;;;;;;5073673;28;20195;-68
2023/06/23 08:14:12;;;;;;;12.88;11.88;;;39.10;99.90;;;;;;5072280;28;20168;-70
2023/06/23 08:16:38;;;;;;;12.65;11.55;;;39.10;99.90;;;;;;5073597;28;20672;-69
2023/06/23 08:19:04;;;;;;;10.10;9.25;;;39.20;99.90;;;;;;5073161;28;20255;-68
2023/06/23 08:21:30;;;;;;;11.07;10.15;;;38.90;99.90;;;;;;5073744;28;20247;-68
2023/06/23 08:23:57;;;;;;;8.70;8.00;;;39.10;99.90;;;;;;5073673;28;20237;-68
2023/06/23 08:26:23;;;;;;;8.98;7.60;;;38.70;99.90;;;;;;5073461;28;20756;-69
2023/06/23 08:28:49;;;;;;;8.13;7.43;;;38.30;99.90;;;;;;5072912;28;20262;-69
2023/06/23 08:31:14;;;;;;;7.20;6.63;;;38.30;99.90;;;;;;5072739;28;20647;-69
2023/06/23 08:33:41;;;;;;;8.93;8.02;;;38.40;99.90;;;;;;5073917;28;20171;-69
2023/06/23 08:36:07;;;;;;;9.55;8.82;;;39.00;99.90;;;;;;5073155;28;20225;-70
2023/06/23 08:38:32;;;;;;;8.07;7.22;;;38.50;99.90;;;;;;5073277;28;20728;-68
2023/06/23 08:40:58;;;;;;;9.10;8.20;;;39.00;99.90;;;;;;5072965;28;20174;-68
2023/06/23 08:43:27;;;;;;;7.45;6.82;;;39.40;99.90;;;;;;5071856;28;20164;-69
2023/06/23 08:45:58;;;;;;;7.18;6.50;;;39.40;99.90;;;;;;5072847;28;20176;-69
2023/06/23 08:48:26;;;;;;;5.80;5.30;;;39.80;99.90;;;;;;5072924;28;20623;-68
2023/06/23 08:51:02;;;;;;;6.47;5.80;;;39.50;99.90;;;;;;5073107;28;20219;-69
2023/06/23 08:53:28;;;;;;;7.25;6.65;;;38.80;99.90;;;;;;5073199;28;20159;-68
2023/06/23 08:55:54;;;;;;;5.75;5.43;;;38.90;99.90;;;;;;5072483;28;20178;-69
2023/06/23 08:58:22;;;;;;;8.52;7.75;;;38.90;99.90;;;;;;5072168;28;20167;-68
2023/06/23 09:00:49;;;;;;;5.28;4.97;;;38.40;99.90;;;;;;5072908;28;20211;-69
2023/06/23 09:03:15;;;;;;;6.20;5.80;;;38.20;99.90;;;;;;5072902;28;20168;-68
2023/06/23 09:05:42;;;;;;;4.63;4.22;;;37.50;99.90;;;;;;5072658;28;20168;-68
2023/06/23 09:08:09;;;;;;;5.20;4.90;;;37.30;99.90;;;;;;5072524;28;20160;-69
2023/06/23 09:10:34;;;;;;;5.97;5.47;;;38.30;99.90;;;;;;5072446;28;20219;-69
2023/06/23 09:13:20;;;;;;;5.28;4.78;;;37.90;99.90;;;;;;5072045;28;20279;-68
2023/06/23 09:15:47;;;;;;;4.75;4.30;;;36.90;99.90;;;;;;5072689;28;20233;-69
2023/06/23 09:18:15;;;;;;;4.60;3.60;;;37.40;99.90;;;;;;5072658;28;20160;-68
2023/06/23 09:20:45;;;;;;;4.57;4.18;;;37.90;99.90;;;;;;5073113;28;20180;-69
2023/06/23 09:23:19;;;;;;;6.65;4.60;;;38.10;99.90;;;;;;5072541;28;20243;-68
2023/06/23 09:25:54;;;;;;;4.88;4.35;;;37.10;99.90;;;;;;5071810;28;20263;-68
2023/06/23 09:28:26;;;;;;;4.25;3.85;;;37.30;99.90;;;;;;5072509;28;20623;-69
2023/06/23 09:30:53;;;;;;;3.60;3.30;;;37.40;99.90;;;;;;5054267;28;20215;-68
2023/06/23 09:33:20;;;;;;;4.32;4.05;;;37.80;99.90;;;;;;5072409;28;20248;-69
2023/06/23 09:35:54;;;;;;;4.40;4.10;;;37.60;99.90;;;;;;5072557;28;20208;-69
2023/06/23 09:38:27;;;;;;;4.28;3.97;;;37.80;99.90;;;;;;5071873;28;20211;-69
2023/06/23 09:41:10;;;;;;;4.15;3.70;;;38.20;99.90;;;;;;5071950;28;20168;-68
2023/06/23 09:43:41;;;;;;;4.50;4.10;;;38.90;99.90;;;;;;5072392;28;20160;-69
2023/06/23 09:46:12;;;;;;;3.95;3.65;;;39.20;99.90;;;;;;5072571;28;20187;-69
2023/06/23 09:48:39;;;;;;;3.45;3.15;;;39.20;99.90;;;;;;5071876;28;20164;-68
2023/06/23 09:51:05;;;;;;;3.58;3.28;;;39.40;99.90;;;;;;5072205;28;20208;-68
2023/06/23 09:53:33;;;;;;;3.75;3.45;;;39.40;98.80;;;;;;5072246;28;20168;-69
2023/06/23 09:56:00;;;;;;;4.65;4.22;;;39.00;96.60;;;;;;5071452;28;20160;-68
2023/06/23 09:58:36;;;;;;;4.32;4.03;;;38.70;99.90;;;;;;5072321;28;20468;-68
2023/06/23 10:01:04;;;;;;;6.45;4.85;;;37.60;99.90;;;;;;5071934;28;20271;-70
2023/06/23 10:03:31;;;;;;;4.78;4.47;;;36.30;99.90;;;;;;5071830;28;20603;-69
2023/06/23 10:05:59;;;;;;;5.55;5.15;;;35.80;99.90;;;;;;5071917;28;20254;-68
2023/06/23 10:08:28;;;;;;;4.18;3.95;;;36.50;99.90;;;;;;5071909;28;20623;-69
2023/06/23 10:10:54;;;;;;;4.05;3.65;;;37.00;99.90;;;;;;5071674;28;20210;-70
2023/06/23 10:13:21;;;;;;;4.40;4.00;;;36.90;99.90;;;;;;5053745;28;20251;-69
2023/06/23 10:15:47;;;;;;;4.78;4.28;;;37.60;99.90;;;;;;5071250;28;20230;-69
2023/06/23 10:18:13;;;;;;;4.05;3.75;;;36.90;99.90;;;;;;5071658;28;20243;-69
2023/06/23 10:20:39;;;;;;;4.18;3.78;;;36.40;99.90;;;;;;5071440;28;20176;-69
2023/06/23 10:23:06;;;;;;;3.20;3.00;;;37.00;99.90;;;;;;5071737;28;20639;-70
2023/06/23 10:25:35;;;;;;;4.38;3.97;;;36.60;99.90;;;;;;5071523;28;20199;-69
2023/06/23 10:28:07;;;;;;;4.18;3.40;;;36.10;99.90;;;;;;5071457;28;20176;-66
2023/06/23 10:30:33;;;;;;;3.75;3.20;;;34.80;99.90;;;;;;5071704;28;20216;-67
2023/06/23 10:33:02;;;;;;;4.55;3.60;;;34.80;99.90;;;;;;5071216;28;20301;-68
2023/06/23 10:35:29;;;;;;;3.40;3.17;;;34.90;99.90;;;;;;5071168;28;20194;-68
2023/06/23 10:38:04;;;;;;;4.00;3.53;;;35.30;99.90;;;;;;5074618;28;20212;-68
2023/06/23 10:40:38;;;;;;;3.70;3.50;;;36.00;99.90;;;;;;5075645;28;20171;-68
2023/06/23 10:43:06;;;;;;;3.80;3.45;;;35.90;99.90;;;;;;5075196;28;20183;-68
2023/06/23 10:45:32;;;;;;;3.22;2.97;;;35.40;99.90;;;;;;5075334;28;20255;-67
2023/06/23 10:47:58;;;;;;;3.85;3.50;;;35.70;99.90;;;;;;5075099;28;20639;-69
2023/06/23 10:50:26;;;;;;;2.88;2.67;;;35.50;99.90;;;;;;5074774;28;20208;-67
2023/06/23 10:52:51;;;;;;;3.22;3.05;;;35.70;99.90;;;;;;5074317;28;20513;-67
2023/06/23 10:55:36;;;;;;;3.47;3.10;;;36.50;99.90;;;;;;5075005;28;20681;-66
2023/06/23 10:58:16;;;;;;;4.50;4.03;;;36.20;99.90;;;;;;5074727;28;20187;-67
2023/06/23 11:00:54;;;;;;;4.25;3.85;;;36.50;99.90;;;;;;5074831;28;20176;-66
2023/06/23 11:03:28;;;;;;;4.25;3.83;;;36.00;99.90;;;;;;5074884;28;20175;-66
2023/06/23 11:05:56;;;;;;;4.35;3.90;;;35.10;99.90;;;;;;5074586;28;20155;-65
2023/06/23 11:08:36;;;;;;;5.80;4.22;;;34.80;99.90;;;;;;5073983;28;20619;-66
2023/06/23 11:11:04;;;;;;;4.35;3.95;;;33.80;1.00;;;;;;5074399;28;20773;-65
2023/06/23 11:13:50;;;;;;;4.47;4.18;;;32.90;1.00;;;;;;5074396;28;20168;-66
2023/06/23 11:16:37;;;;;;;5.97;5.20;;;32.80;1.00;;;;;;5074723;28;20176;-67
2023/06/23 11:19:04;;;;;;;4.85;4.25;;;33.00;1.00;;;;;;5075281;28;20164;-66
2023/06/23 11:21:33;;;;;;;5.38;4.90;;;32.90;1.00;;;;;;5073934;28;20242;-65
2023/06/23 11:24:17;;;;;;;4.72;4.30;;;33.10;1.00;;;;;;5073714;28;20616;-66
2023/06/23 11:26:48;;;;;;;4.45;3.70;;;33.70;1.00;;;;;;5073639;28;20188;-65
2023/06/23 11:29:17;;;;;;;4.10;3.70;;;33.60;1.00;;;;;;5074193;28;20346;-66
2023/06/23 11:32:04;;;;;;;4.28;3.60;;;33.90;1.00;;;;;;5074461;28;20207;-66
2023/06/23 11:34:48;;;;;;;3.60;3.30;;;33.40;1.00;;;;;;5073469;28;20172;-65
2023/06/23 11:37:14;;;;;;;4.30;4.00;;;33.60;1.00;;;;;;5074120;28;20228;-66
2023/06/23 11:39:40;;;;;;;4.90;4.50;;;34.00;1.00;;;;;;5074077;28;20214;-66
2023/06/23 11:42:06;;;;;;;5.97;4.28;;;33.30;1.00;;;;;;5074194;28;20329;-65
2023/06/23 11:44:32;;;;;;;4.47;4.07;;;32.60;99.90;;;;;;5074191;28;20192;-66
2023/06/23 11:46:58;;;;;;;4.80;4.40;;;33.30;1.00;;;;;;5073671;28;20582;-66
2023/06/23 11:49:24;;;;;;;4.53;4.20;;;33.60;63.90;;;;;;5073236;28;20180;-66
2023/06/23 11:51:50;;;;;;;7.10;4.13;;;32.30;1.00;;;;;;5073418;28;20608;-66
2023/06/23 11:54:16;;;;;;;5.93;4.00;;;31.30;1.00;;;;;;5055952;28;20203;-66
2023/06/23 11:56:42;;;;;;;7.20;4.47;;;31.50;1.00;;;;;;5073846;28;20161;-64
2023/06/23 11:59:10;;;;;;;4.32;3.92;;;31.80;1.00;;;;;;5073265;28;20160;-65
2023/06/23 12:01:36;;;;;;;3.70;3.50;;;32.30;99.90;;;;;;5073357;28;20195;-65
2023/06/23 12:04:05;;;;;;;7.30;3.88;;;32.20;26.80;;;;;;5073954;28;20568;-64
2023/06/23 12:06:35;;;;;;;4.45;3.35;;;32.10;99.90;;;;;;5073669;28;20180;-64
2023/06/23 12:09:02;;;;;;;3.15;2.95;;;32.30;99.90;;;;;;5073902;28;20199;-65
2023/06/23 12:11:29;;;;;;;4.88;4.57;;;32.20;99.90;;;;;;5073382;28;20300;-63
2023/06/23 12:13:57;;;;;;;4.85;4.20;;;31.80;1.00;;;;;;5073384;28;20164;-64
2023/06/23 12:16:22;;;;;;;4.53;3.60;;;31.70;99.90;;;;;;5073235;28;20230;-64
2023/06/23 12:18:50;;;;;;;3.40;3.20;;;30.90;1.00;;;;;;5073732;28;20181;-64
2023/06/23 12:21:20;;;;;;;4.47;3.05;;;30.80;1.00;;;;;;5073091;28;20207;-63
2023/06/23 12:23:46;;;;;;;3.97;3.30;;;30.60;99.90;;;;;;5073834;28;20169;-64
2023/06/23 12:26:13;;;;;;;4.57;3.35;;;30.50;99.90;;;;;;5072594;28;20761;-64
2023/06/23 12:28:39;;;;;;;3.08;2.88;;;30.30;1.00;;;;;;5072849;28;20195;-63
2023/06/23 12:31:05;;;;;;;3.17;2.97;;;30.10;1.00;;;;;;5073175;28;20296;-64
2023/06/23 12:33:32;;;;;;;3.90;3.60;;;30.50;99.90;;;;;;5073126;28;20889;-64
2023/06/23 12:36:03;;;;;;;3.35;3.15;;;30.00;1.00;;;;;;5072754;28;20196;-65
2023/06/23 12:38:30;;;;;;;3.20;3.00;;;30.20;99.90;;;;;;5072993;28;20281;-64
2023/06/23 12:41:14;;;;;;;4.57;2.95;;;30.20;1.00;;;;;;5073248;28;20176;-65
2023/06/23 12:43:39;;;;;;;3.67;3.35;;;30.80;1.00;;;;;;5072749;28;20169;-65
2023/06/23 12:46:05;;;;;;;3.70;3.40;;;30.60;1.00;;;;;;5072962;28;20169;-65